Time;durP1;ratioP1;P1;durP2;ratioP2;P2;SDS_P1;SDS_P2;PMS_P1;PMS_P2;Temp;Humidity;BMP_temperature;BMP_pressure;BME280_temperature;BME280_humidity;BME280_pressure;Samples;Min_cycle;Max_cycle;Signal;HPM_P1;HPM_P2
2021/08/23 00:03:55;;;;;;;;;;;13.60;99.90;;;;;;8463518;28;19986;-68
2021/08/23 00:07:55;;;;;;;;;;;13.80;99.90;;;;;;8463329;28;19998;-68
2021/08/23 00:11:56;;;;;;;;;;;14.10;99.90;;;;;;8463277;28;20426;-68
2021/08/23 00:15:56;;;;;;;;;;;14.20;99.90;;;;;;8463413;28;19911;-68
2021/08/23 00:19:57;;;;;;;;;;;14.50;99.90;;;;;;8444684;28;20293;-67
2021/08/23 00:24:06;;;;;;;;;;;14.60;99.90;;;;;;8462274;28;19912;-67
2021/08/23 00:28:08;;;;;;;;;;;14.60;99.90;;;;;;8443860;28;20174;-67
2021/08/23 00:32:09;;;;;;;;;;;14.40;99.90;;;;;;8463032;28;19908;-68
2021/08/23 00:36:10;;;;;;;;;;;14.50;99.90;;;;;;8462952;28;19914;-67
2021/08/23 00:40:10;;;;;;;;;;;14.50;99.90;;;;;;8462925;28;19907;-67
2021/08/23 00:44:11;;;;;;;;;;;14.60;99.90;;;;;;8462808;28;19995;-67
2021/08/23 00:48:11;;;;;;;;;;;14.50;99.90;;;;;;8462436;28;19915;-67
2021/08/23 00:52:12;;;;;;;;;;;14.30;99.90;;;;;;8461839;28;19923;-67
2021/08/23 00:56:13;;;;;;;;;;;14.20;99.90;;;;;;8462270;28;20277;-67
2021/08/23 01:00:14;;;;;;;;;;;14.10;99.90;;;;;;8462360;28;20146;-67
2021/08/23 01:04:23;;;;;;;;;;;14.10;99.90;;;;;;8461928;28;20370;-67
2021/08/23 01:08:40;;;;;;;;;;;13.90;99.90;;;;;;8461706;28;19984;-67
2021/08/23 01:12:41;;;;;;;;;;;13.80;99.90;;;;;;8461413;28;20015;-68
2021/08/23 01:16:41;;;;;;;;;;;13.40;99.90;;;;;;8461562;28;19912;-68
2021/08/23 01:20:42;;;;;;;;;;;13.30;99.90;;;;;;8461236;28;19982;-68
2021/08/23 01:24:45;;;;;;;;;;;13.10;99.90;;;;;;8461155;28;19940;-68
2021/08/23 01:28:48;;;;;;;;;;;13.00;99.90;;;;;;8442404;28;19994;-67
2021/08/23 01:32:49;;;;;;;;;;;12.90;99.90;;;;;;8460308;28;19912;-67
2021/08/23 01:36:49;;;;;;;;;;;13.10;99.90;;;;;;8460808;28;19908;-68
2021/08/23 01:40:59;;;;;;;;;;;13.10;99.90;;;;;;8460573;28;19915;-67
2021/08/23 01:45:00;;;;;;;;;;;13.10;99.90;;;;;;8442472;28;19915;-68
2021/08/23 01:49:04;;;;;;;;;;;12.80;99.90;;;;;;8460186;28;19908;-68
2021/08/23 01:53:05;;;;;;;;;;;12.70;99.90;;;;;;8459989;28;19915;-67
2021/08/23 01:57:05;;;;;;;;;;;12.70;99.90;;;;;;8460201;28;19907;-68
2021/08/23 02:01:06;;;;;;;;;;;12.60;99.90;;;;;;8459757;28;20354;-68
2021/08/23 02:05:06;;;;;;;;;;;12.70;99.90;;;;;;8441652;28;20323;-68
2021/08/23 02:09:07;;;;;;;;;;;12.60;99.90;;;;;;8459543;28;19915;-67
2021/08/23 02:13:08;;;;;;;;;;;12.60;99.90;;;;;;8459421;28;19926;-68
2021/08/23 02:17:08;;;;;;;;;;;12.60;99.90;;;;;;8459588;28;20002;-67
2021/08/23 02:21:09;;;;;;;;;;;12.40;99.90;;;;;;8459231;28;19912;-67
2021/08/23 02:25:10;;;;;;;;;;;12.50;99.90;;;;;;8458790;28;19936;-67
2021/08/23 02:29:10;;;;;;;;;;;12.40;99.90;;;;;;8458448;28;20373;-67
2021/08/23 02:33:11;;;;;;;;;;;12.20;99.90;;;;;;8459187;28;19994;-68
2021/08/23 02:37:11;;;;;;;;;;;12.10;99.90;;;;;;8459233;28;19960;-67
2021/08/23 02:41:11;;;;;;;;;;;12.10;99.90;;;;;;8459011;28;19965;-67
2021/08/23 02:45:12;;;;;;;;;;;12.10;99.90;;;;;;8442996;28;19908;-67
2021/08/23 02:49:13;;;;;;;;;;;11.90;99.90;;;;;;8447689;28;19908;-67
2021/08/23 02:53:15;;;;;;;;;;;11.80;99.90;;;;;;8465670;28;19916;-67
2021/08/23 02:57:16;;;;;;;;;;;11.80;99.90;;;;;;8465928;28;19908;-67
2021/08/23 03:01:17;;;;;;;;;;;12.10;99.90;;;;;;8465463;28;19911;-67
2021/08/23 03:05:17;;;;;;;;;;;12.20;99.90;;;;;;8465584;28;19980;-67
2021/08/23 03:09:18;;;;;;;;;;;11.80;99.90;;;;;;8447466;28;19911;-67
2021/08/23 03:13:18;;;;;;;;;;;11.70;99.90;;;;;;8446323;28;19920;-67
2021/08/23 03:17:20;;;;;;;;;;;11.60;99.90;;;;;;8465272;28;20330;-68
2021/08/23 03:21:20;;;;;;;;;;;11.50;99.90;;;;;;8464331;28;19968;-67
2021/08/23 03:25:21;;;;;;;;;;;11.50;99.90;;;;;;8464676;28;20495;-67
2021/08/23 03:29:22;;;;;;;;;;;11.60;99.90;;;;;;8449053;28;19951;-67
2021/08/23 03:33:22;;;;;;;;;;;11.60;99.90;;;;;;8452710;28;19930;-67
2021/08/23 03:37:23;;;;;;;;;;;11.80;99.90;;;;;;8447014;28;20436;-67
2021/08/23 03:41:23;;;;;;;;;;;12.00;99.90;;;;;;8429288;28;19912;-67
2021/08/23 03:45:24;;;;;;;;;;;12.00;99.90;;;;;;8454827;28;19919;-68
2021/08/23 03:49:24;;;;;;;;;;;11.70;99.90;;;;;;8441953;28;19966;-67
2021/08/23 03:53:25;;;;;;;;;;;11.80;99.90;;;;;;8452744;28;19985;-67
2021/08/23 03:57:25;;;;;;;;;;;11.80;99.90;;;;;;8462791;28;19911;-68
2021/08/23 04:01:26;;;;;;;;;;;11.80;99.90;;;;;;8433293;28;20400;-68
2021/08/23 04:05:26;;;;;;;;;;;12.10;99.90;;;;;;8430872;28;19919;-67
2021/08/23 04:09:26;;;;;;;;;;;11.80;99.90;;;;;;8425831;28;19908;-67
2021/08/23 04:13:27;;;;;;;;;;;11.60;99.90;;;;;;8425233;28;20069;-68
2021/08/23 04:17:27;;;;;;;;;;;11.60;99.90;;;;;;8434977;28;19911;-67
2021/08/23 04:21:28;;;;;;;;;;;11.50;99.90;;;;;;8459301;28;19911;-67
2021/08/23 04:25:28;;;;;;;;;;;11.50;99.90;;;;;;8459413;28;19912;-67
2021/08/23 04:29:29;;;;;;;;;;;11.60;99.90;;;;;;8458669;28;19919;-68
2021/08/23 04:33:29;;;;;;;;;;;11.50;99.90;;;;;;8458960;28;19923;-67
2021/08/23 04:37:30;;;;;;;;;;;11.70;99.90;;;;;;8440113;28;19916;-69
2021/08/23 04:41:37;;;;;;;;;;;11.70;99.90;;;;;;8458684;28;19972;-67
2021/08/23 04:45:37;;;;;;;;;;;11.90;99.90;;;;;;8459042;28;19907;-67
2021/08/23 04:49:38;;;;;;;;;;;12.00;99.90;;;;;;8458384;28;20467;-67
2021/08/23 04:53:38;;;;;;;;;;;12.30;99.90;;;;;;8458254;28;19924;-67
2021/08/23 04:57:39;;;;;;;;;;;12.40;99.90;;;;;;8458507;28;19912;-68
2021/08/23 05:01:39;;;;;;;;;;;12.50;99.90;;;;;;8458087;28;19912;-67
2021/08/23 05:09:45;;;;;;;;;;;12.60;99.90;;;;;;8478153;22;19924;-65
2021/08/23 05:13:46;;;;;;;;;;;12.80;99.90;;;;;;8460575;28;19923;-64
2021/08/23 05:17:46;;;;;;;;;;;12.90;99.90;;;;;;8442915;28;19908;-64
2021/08/23 05:21:47;;;;;;;;;;;13.10;99.90;;;;;;8436353;28;19916;-64
2021/08/23 05:25:47;;;;;;;;;;;13.30;99.90;;;;;;8451134;28;19919;-64
2021/08/23 05:29:48;;;;;;;;;;;13.60;99.90;;;;;;8439885;28;20017;-64
2021/08/23 05:33:49;;;;;;;;;;;13.80;99.90;;;;;;8443193;28;20542;-64
2021/08/23 05:37:50;;;;;;;;;;;13.90;99.90;;;;;;8439430;28;19919;-62
2021/08/23 05:41:51;;;;;;;;;;;14.10;99.90;;;;;;8423894;28;19972;-62
2021/08/23 05:45:51;;;;;;;;;;;14.40;99.90;;;;;;8442584;28;20385;-62
2021/08/23 05:49:52;;;;;;;;;;;14.60;99.90;;;;;;8449463;28;20006;-62
2021/08/23 05:53:52;;;;;;;;;;;14.70;99.90;;;;;;8450520;28;19916;-62
2021/08/23 05:57:52;;;;;;;;;;;14.90;99.90;;;;;;8440019;28;19911;-63
2021/08/23 06:01:53;;;;;;;;;;;15.00;99.90;;;;;;8448571;28;19911;-62
2021/08/23 06:05:54;;;;;;;;;;;15.10;99.90;;;;;;8438621;28;20003;-63
2021/08/23 06:09:54;;;;;;;;;;;15.00;99.90;;;;;;8450490;28;20386;-61
2021/08/23 06:13:55;;;;;;;;;;;15.00;99.90;;;;;;8457407;28;19916;-61
2021/08/23 06:17:55;;;;;;;;;;;15.30;99.90;;;;;;8455518;28;19927;-61
2021/08/23 06:21:56;;;;;;;;;;;15.50;99.90;;;;;;8457084;28;20533;-61
2021/08/23 06:25:56;;;;;;;;;;;15.70;99.90;;;;;;8448588;28;20427;-61
2021/08/23 06:29:57;;;;;;;;;;;15.90;99.90;;;;;;8445628;28;19919;-61
2021/08/23 06:33:57;;;;;;;;;;;15.90;99.90;;;;;;8456110;28;19916;-61
2021/08/23 06:37:58;;;;;;;;;;;15.90;99.90;;;;;;8438401;28;19919;-61
2021/08/23 06:41:58;;;;;;;;;;;16.10;99.90;;;;;;8456805;28;19915;-62
2021/08/23 06:45:59;;;;;;;;;;;16.20;99.90;;;;;;8456636;28;20010;-61
2021/08/23 06:50:00;;;;;;;;;;;16.20;99.90;;;;;;8451094;28;19958;-60
2021/08/23 06:54:00;;;;;;;;;;;16.10;99.90;;;;;;8455048;28;19955;-60
2021/08/23 06:58:01;;;;;;;;;;;16.10;99.90;;;;;;8455361;28;19919;-61
2021/08/23 07:02:01;;;;;;;;;;;15.90;99.90;;;;;;8457590;28;20394;-61
2021/08/23 07:06:02;;;;;;;;;;;16.00;99.90;;;;;;8454881;28;20429;-61
2021/08/23 07:10:03;;;;;;;;;;;16.10;99.90;;;;;;8437048;28;19966;-61
2021/08/23 07:14:03;;;;;;;;;;;16.30;99.90;;;;;;8456962;28;19923;-61
2021/08/23 07:18:03;;;;;;;;;;;16.40;99.90;;;;;;8453097;28;19991;-60
2021/08/23 07:22:04;;;;;;;;;;;16.70;99.90;;;;;;8451515;28;19912;-60
2021/08/23 07:26:04;;;;;;;;;;;16.80;99.90;;;;;;8450867;28;19915;-61
2021/08/23 07:30:05;;;;;;;;;;;16.80;99.90;;;;;;8447864;28;19953;-61
2021/08/23 07:34:06;;;;;;;;;;;16.80;99.90;;;;;;8444042;28;19927;-61
2021/08/23 07:38:07;;;;;;;;;;;16.90;99.90;;;;;;8454726;28;19912;-60
2021/08/23 07:42:08;;;;;;;;;;;17.00;99.90;;;;;;8442784;28;20397;-61
2021/08/23 07:46:09;;;;;;;;;;;17.10;99.90;;;;;;8452611;28;19912;-60
2021/08/23 07:50:10;;;;;;;;;;;17.20;99.90;;;;;;8459128;28;19912;-61
2021/08/23 07:54:11;;;;;;;;;;;17.40;99.90;;;;;;8457175;28;19922;-61
2021/08/23 07:58:11;;;;;;;;;;;17.70;99.90;;;;;;8460068;28;19908;-61
2021/08/23 08:02:12;;;;;;;;;;;18.30;99.90;;;;;;8460646;28;20289;-61
2021/08/23 08:06:12;;;;;;;;;;;19.00;99.90;;;;;;8463496;28;20437;-61
2021/08/23 08:10:13;;;;;;;;;;;19.20;99.90;;;;;;8445127;28;19908;-61
2021/08/23 08:14:14;;;;;;;;;;;19.00;99.90;;;;;;8464074;28;20342;-61
2021/08/23 08:18:14;;;;;;;;;;;19.00;99.90;;;;;;8463257;28;19912;-61
2021/08/23 08:22:15;;;;;;;;;;;18.80;99.90;;;;;;8463358;28;19907;-61
2021/08/23 08:26:15;;;;;;;;;;;18.80;99.90;;;;;;8445201;28;19914;-61
2021/08/23 08:30:17;;;;;;;;;;;18.80;99.90;;;;;;8462926;28;19913;-61
2021/08/23 08:34:17;;;;;;;;;;;18.40;99.90;;;;;;8462952;28;19912;-61
2021/08/23 08:38:18;;;;;;;;;;;18.30;99.90;;;;;;8462540;28;19908;-60
2021/08/23 08:42:19;;;;;;;;;;;18.40;99.90;;;;;;8461953;28;19951;-61
2021/08/23 08:46:19;;;;;;;;;;;18.50;99.90;;;;;;8462754;28;19908;-61
2021/08/23 08:50:21;;;;;;;;;;;18.80;99.90;;;;;;8462585;28;19908;-61
2021/08/23 08:54:21;;;;;;;;;;;19.00;99.90;;;;;;8462377;28;19955;-61
2021/08/23 08:58:23;;;;;;;;;;;19.00;99.90;;;;;;8461678;28;19908;-61
2021/08/23 09:02:23;;;;;;;;;;;19.30;99.90;;;;;;8462267;28;19953;-61
2021/08/23 09:06:24;;;;;;;;;;;19.60;99.90;;;;;;8461843;28;19912;-61
2021/08/23 09:10:25;;;;;;;;;;;20.10;99.90;;;;;;8461665;28;19908;-61
2021/08/23 09:14:26;;;;;;;;;;;20.30;99.90;;;;;;8462307;28;19965;-61
2021/08/23 09:18:29;;;;;;;;;;;20.30;99.90;;;;;;8461064;28;20374;-61
2021/08/23 09:22:30;;;;;;;;;;;20.30;99.90;;;;;;8461427;28;19908;-61
2021/08/23 09:26:34;;;;;;;;;;;20.90;99.90;;;;;;8461363;28;20285;-61
2021/08/23 09:30:35;;;;;;;;;;;21.40;99.90;;;;;;8461226;28;19908;-61
2021/08/23 09:34:43;;;;;;;;;;;22.10;99.90;;;;;;8461422;28;19915;-61
2021/08/23 09:38:43;;;;;;;;;;;22.50;99.90;;;;;;8461557;28;20010;-61
2021/08/23 09:42:44;;;;;;;;;;;22.20;99.90;;;;;;8461010;28;19915;-61
2021/08/23 09:46:44;;;;;;;;;;;21.90;99.90;;;;;;8460945;28;19908;-61
2021/08/23 09:50:46;;;;;;;;;;;21.60;99.90;;;;;;8460407;28;19908;-61
2021/08/23 09:54:47;;;;;;;;;;;21.10;99.90;;;;;;8460305;28;20384;-61
2021/08/23 09:58:48;;;;;;;;;;;20.50;99.90;;;;;;8460277;28;20006;-61
2021/08/23 10:02:48;;;;;;;;;;;20.40;99.90;;;;;;8460433;28;19908;-61
2021/08/23 10:06:50;;;;;;;;;;;20.30;99.90;;;;;;8459969;28;19920;-61
2021/08/23 10:10:51;;;;;;;;;;;20.10;99.90;;;;;;8460155;28;20236;-61
2021/08/23 10:14:51;;;;;;;;;;;20.30;99.90;;;;;;8460449;28;19994;-61
2021/08/23 10:18:53;;;;;;;;;;;20.50;99.90;;;;;;8459498;28;19915;-62
2021/08/23 10:22:53;;;;;;;;;;;20.80;99.90;;;;;;8460100;28;19914;-61
2021/08/23 10:26:55;;;;;;;;;;;20.30;99.90;;;;;;8459570;28;19994;-61
2021/08/23 10:31:04;;;;;;;;;;;20.20;99.90;;;;;;8459444;28;19914;-61
2021/08/23 10:35:14;;;;;;;;;;;20.30;99.90;;;;;;8459568;28;19994;-61
2021/08/23 10:39:19;;;;;;;;;;;20.20;99.90;;;;;;8459123;28;19939;-61
2021/08/23 10:43:21;;;;;;;;;;;20.30;99.90;;;;;;8459385;28;19916;-61
2021/08/23 10:47:29;;;;;;;;;;;20.20;99.90;;;;;;8459194;28;19907;-61
2021/08/23 10:51:37;;;;;;;;;;;21.00;99.90;;;;;;8459069;28;20002;-61
2021/08/23 10:55:37;;;;;;;;;;;21.50;99.90;;;;;;8459185;28;20266;-61
2021/08/23 10:59:39;;;;;;;;;;;21.20;99.90;;;;;;8458785;28;19961;-61
2021/08/23 11:03:40;;;;;;;;;;;20.60;99.90;;;;;;8458924;28;19908;-61
2021/08/23 11:07:42;;;;;;;;;;;20.70;99.90;;;;;;8469206;22;19970;-64
2021/08/23 11:11:42;;;;;;;;;;;20.90;99.90;;;;;;8431334;28;19991;-64
2021/08/23 11:15:44;;;;;;;;;;;21.80;99.90;;;;;;8431844;28;19927;-64
2021/08/23 11:19:44;;;;;;;;;;;22.20;99.90;;;;;;8461460;28;20385;-67
2021/08/23 11:23:45;;;;;;;;;;;21.90;99.90;;;;;;8465275;28;19961;-66
2021/08/23 11:27:50;;;;;;;;;;;23.30;99.90;;;;;;8464959;28;19908;-66
2021/08/23 11:31:55;;;;;;;;;;;26.70;99.90;;;;;;8465056;28;19915;-67
2021/08/23 11:35:55;;;;;;;;;;;25.60;99.90;;;;;;8464666;28;19950;-66
2021/08/23 11:40:03;;;;;;;;;;;24.90;99.90;;;;;;8463848;28;21222;-66
2021/08/23 11:44:03;;;;;;;;;;;24.10;99.90;;;;;;8446240;28;19915;-66
2021/08/23 11:48:04;;;;;;;;;;;22.80;99.90;;;;;;8464246;28;19911;-67
2021/08/23 11:52:12;;;;;;;;;;;23.00;99.90;;;;;;8464312;28;20002;-65
2021/08/23 11:56:12;;;;;;;;;;;23.10;99.90;;;;;;8464202;28;20357;-66
2021/08/23 12:00:14;;;;;;;;;;;24.60;99.90;;;;;;8463372;28;19919;-66
2021/08/23 12:04:21;;;;;;;;;;;23.70;99.90;;;;;;8463745;28;20292;-66
2021/08/23 12:08:26;;;;;;;;;;;23.40;99.90;;;;;;8463777;28;19920;-66
2021/08/23 12:12:26;;;;;;;;;;;23.70;99.90;;;;;;8463618;28;19914;-67
2021/08/23 12:16:34;;;;;;;;;;;23.90;99.90;;;;;;8463507;28;20380;-66
2021/08/23 12:20:34;;;;;;;;;;;23.80;99.90;;;;;;8462052;28;20385;-66
2021/08/23 12:24:35;;;;;;;;;;;23.90;99.90;;;;;;8463517;28;19915;-66
2021/08/23 12:28:45;;;;;;;;;;;25.30;99.90;;;;;;8444577;28;19933;-66
2021/08/23 12:32:45;;;;;;;;;;;26.10;99.90;;;;;;8463018;28;19956;-66
2021/08/23 12:36:46;;;;;;;;;;;25.30;99.90;;;;;;8462902;28;19908;-66
2021/08/23 12:40:47;;;;;;;;;;;27.00;99.90;;;;;;8462702;28;19908;-66
2021/08/23 12:44:48;;;;;;;;;;;28.40;97.30;;;;;;8462873;28;19998;-66
2021/08/23 12:48:48;;;;;;;;;;;27.60;96.80;;;;;;8462704;28;19907;-66
2021/08/23 12:52:48;;;;;;;;;;;28.50;93.40;;;;;;8462990;28;20014;-66
2021/08/23 12:56:49;;;;;;;;;;;30.60;86.90;;;;;;8462720;28;19908;-66
2021/08/23 13:00:52;;;;;;;;;;;33.70;69.80;;;;;;8461493;28;20369;-67
2021/08/23 13:04:52;;;;;;;;;;;34.50;59.40;;;;;;8462688;28;19910;-66
2021/08/23 13:08:53;;;;;;;;;;;33.90;53.50;;;;;;8460113;28;19919;-67
2021/08/23 13:12:54;;;;;;;;;;;34.00;54.70;;;;;;8459485;28;19915;-66
2021/08/23 13:16:54;;;;;;;;;;;34.60;55.10;;;;;;8461072;28;19915;-66
2021/08/23 13:20:55;;;;;;;;;;;33.30;55.20;;;;;;8459779;28;20304;-67
2021/08/23 13:24:55;;;;;;;;;;;31.40;58.70;;;;;;8445930;28;19916;-66
2021/08/23 13:28:56;;;;;;;;;;;29.60;61.00;;;;;;8442872;28;20416;-66
2021/08/23 13:32:57;;;;;;;;;;;28.80;65.60;;;;;;8437682;28;19944;-66
2021/08/23 13:36:57;;;;;;;;;;;27.60;72.70;;;;;;8457629;28;19912;-66
2021/08/23 13:40:57;;;;;;;;;;;25.90;78.90;;;;;;8456019;28;19912;-65
2021/08/23 13:44:58;;;;;;;;;;;24.00;89.40;;;;;;8456546;28;20023;-65
2021/08/23 13:48:59;;;;;;;;;;;22.10;97.30;;;;;;8456798;28;19937;-65
2021/08/23 13:52:59;;;;;;;;;;;20.10;99.90;;;;;;8456615;28;19950;-66
2021/08/23 13:57:00;;;;;;;;;;;19.30;99.90;;;;;;8455635;28;20408;-66
2021/08/23 14:01:01;;;;;;;;;;;19.00;99.90;;;;;;8453558;28;19911;-66
2021/08/23 14:05:01;;;;;;;;;;;19.00;99.90;;;;;;8458960;28;19935;-65
2021/08/23 14:09:02;;;;;;;;;;;18.60;99.90;;;;;;8458664;28;19923;-66
2021/08/23 14:13:02;;;;;;;;;;;18.80;99.90;;;;;;8456719;28;19982;-66
2021/08/23 14:17:04;;;;;;;;;;;19.00;99.90;;;;;;8436966;28;20453;-66
2021/08/23 14:21:05;;;;;;;;;;;19.20;99.90;;;;;;8437345;28;19912;-66
2021/08/23 14:25:06;;;;;;;;;;;19.50;99.90;;;;;;8456446;28;20361;-66
2021/08/23 14:29:06;;;;;;;;;;;19.80;99.90;;;;;;8457975;28;19930;-66
2021/08/23 14:33:07;;;;;;;;;;;20.00;99.90;;;;;;8459194;28;20173;-66
2021/08/23 14:37:07;;;;;;;;;;;20.50;99.90;;;;;;8441046;28;19908;-66
2021/08/23 14:41:08;;;;;;;;;;;20.60;99.90;;;;;;8450319;28;20366;-66
2021/08/23 14:45:08;;;;;;;;;;;21.10;99.90;;;;;;8425778;28;20290;-66
2021/08/23 14:49:09;;;;;;;;;;;21.60;99.90;;;;;;8425481;28;19908;-66
2021/08/23 14:53:09;;;;;;;;;;;21.90;99.90;;;;;;8451556;28;19912;-67
2021/08/23 14:57:10;;;;;;;;;;;22.90;99.90;;;;;;8458948;28;19915;-66
2021/08/23 15:01:12;;;;;;;;;;;27.10;99.90;;;;;;8440720;28;19914;-64
2021/08/23 15:05:12;;;;;;;;;;;30.40;99.10;;;;;;8455634;28;19954;-65
2021/08/23 15:09:12;;;;;;;;;;;31.90;92.00;;;;;;8456250;28;19923;-65
2021/08/23 15:13:13;;;;;;;;;;;33.50;82.70;;;;;;8452741;28;20313;-65
2021/08/23 15:17:13;;;;;;;;;;;32.80;80.10;;;;;;8431262;28;20085;-65
2021/08/23 15:21:14;;;;;;;;;;;33.70;75.60;;;;;;8454226;28;19912;-65
2021/08/23 15:25:14;;;;;;;;;;;33.20;72.60;;;;;;8457757;28;20017;-66
2021/08/23 15:29:15;;;;;;;;;;;33.40;71.60;;;;;;8443697;28;20046;-65
2021/08/23 15:33:16;;;;;;;;;;;34.10;66.80;;;;;;8440991;28;20347;-66
2021/08/23 15:37:16;;;;;;;;;;;34.70;65.70;;;;;;8458129;28;19915;-65
2021/08/23 15:41:17;;;;;;;;;;;35.80;60.40;;;;;;8458150;28;19912;-65
2021/08/23 15:45:17;;;;;;;;;;;36.50;56.50;;;;;;8458791;28;19912;-64
2021/08/23 15:49:18;;;;;;;;;;;34.50;56.70;;;;;;8458186;28;19947;-64
2021/08/23 15:53:18;;;;;;;;;;;34.10;57.70;;;;;;8460116;28;19961;-65
2021/08/23 15:57:19;;;;;;;;;;;33.20;58.50;;;;;;8463159;28;19919;-65
2021/08/23 16:01:19;;;;;;;;;;;32.70;61.50;;;;;;8463571;28;20438;-64
2021/08/23 16:05:20;;;;;;;;;;;32.10;62.10;;;;;;8463188;28;20181;-64
2021/08/23 16:09:20;;;;;;;;;;;31.90;64.20;;;;;;8461046;28;19924;-64
2021/08/23 16:13:21;;;;;;;;;;;33.70;58.70;;;;;;8458916;28;19916;-64
2021/08/23 16:17:22;;;;;;;;;;;33.40;56.70;;;;;;8463161;28;20376;-64
2021/08/23 16:21:22;;;;;;;;;;;31.70;61.60;;;;;;8462469;28;20205;-64
2021/08/23 16:25:23;;;;;;;;;;;32.00;62.80;;;;;;8462341;28;19916;-64
2021/08/23 16:29:24;;;;;;;;;;;30.80;64.00;;;;;;8459339;28;19916;-64
2021/08/23 16:33:25;;;;;;;;;;;31.10;64.40;;;;;;8461261;28;19916;-64
2021/08/23 16:37:25;;;;;;;;;;;31.90;62.20;;;;;;8459511;28;19919;-65
2021/08/23 16:41:26;;;;;;;;;;;33.10;59.10;;;;;;8460960;28;20370;-65
2021/08/23 16:45:26;;;;;;;;;;;33.30;58.50;;;;;;8461553;28;19961;-63
2021/08/23 16:49:27;;;;;;;;;;;32.40;59.60;;;;;;8458903;28;19912;-63
2021/08/23 16:53:28;;;;;;;;;;;32.60;60.40;;;;;;8459162;28;19912;-63
2021/08/23 16:57:28;;;;;;;;;;;32.10;60.10;;;;;;8461569;28;19964;-63
2021/08/23 17:01:29;;;;;;;;;;;30.90;64.00;;;;;;8459754;28;19912;-63
2021/08/23 17:05:30;;;;;;;;;;;30.60;63.40;;;;;;8427493;28;19909;-65
2021/08/23 17:09:31;;;;;;;;;;;29.00;67.80;;;;;;8428348;28;20336;-65
2021/08/23 17:13:32;;;;;;;;;;;26.70;76.70;;;;;;8440419;28;19960;-65
2021/08/23 17:17:32;;;;;;;;;;;24.70;83.90;;;;;;8459881;28;20239;-64
2021/08/23 17:21:33;;;;;;;;;;;23.50;91.20;;;;;;8460391;28;19908;-64
2021/08/23 17:25:34;;;;;;;;;;;22.70;93.90;;;;;;8460044;28;19922;-68
2021/08/23 17:29:34;;;;;;;;;;;22.10;96.50;;;;;;8459880;28;19950;-67
2021/08/23 17:33:35;;;;;;;;;;;21.80;99.90;;;;;;8452348;28;19954;-66
2021/08/23 17:37:35;;;;;;;;;;;21.40;99.90;;;;;;8416727;28;19912;-66
2021/08/23 17:41:36;;;;;;;;;;;21.40;99.90;;;;;;8424232;28;19935;-67
2021/08/23 17:45:36;;;;;;;;;;;20.90;99.90;;;;;;8449623;28;19965;-67
2021/08/23 17:49:37;;;;;;;;;;;20.50;99.90;;;;;;8446861;28;20414;-67
2021/08/23 17:53:41;;;;;;;;;;;20.00;99.90;;;;;;8445632;28;19967;-67
2021/08/23 17:57:41;;;;;;;;;;;19.70;99.90;;;;;;8454894;28;20010;-67
2021/08/23 18:01:42;;;;;;;;;;;19.50;99.90;;;;;;8454846;28;19912;-67
2021/08/23 18:05:42;;;;;;;;;;;19.20;99.90;;;;;;8440642;28;19908;-67
2021/08/23 18:09:43;;;;;;;;;;;18.90;99.90;;;;;;8459698;28;19947;-67
2021/08/23 18:13:43;;;;;;;;;;;18.50;99.90;;;;;;8441676;28;19916;-66
2021/08/23 18:17:43;;;;;;;;;;;18.30;99.90;;;;;;8459600;28;19954;-65
2021/08/23 18:21:44;;;;;;;;;;;18.10;99.90;;;;;;8436154;28;19916;-66
2021/08/23 18:25:44;;;;;;;;;;;18.00;99.90;;;;;;8457550;28;20394;-65
2021/08/23 18:29:46;;;;;;;;;;;17.90;99.90;;;;;;8458840;28;19911;-67
2021/08/23 18:33:47;;;;;;;;;;;17.80;99.90;;;;;;8459117;28;19942;-67
2021/08/23 18:37:48;;;;;;;;;;;17.60;99.90;;;;;;8427031;28;19908;-67
2021/08/23 18:41:48;;;;;;;;;;;17.50;99.90;;;;;;8425640;28;19908;-66
2021/08/23 18:45:48;;;;;;;;;;;17.60;99.90;;;;;;8406725;28;19939;-66
2021/08/23 18:49:49;;;;;;;;;;;17.40;99.90;;;;;;8424832;28;19955;-66
2021/08/23 18:53:49;;;;;;;;;;;17.40;99.90;;;;;;8456843;28;19934;-68
2021/08/23 18:57:50;;;;;;;;;;;17.30;99.90;;;;;;8458856;28;19908;-67
2021/08/23 19:01:51;;;;;;;;;;;17.30;99.90;;;;;;8439221;28;19919;-67
2021/08/23 19:05:52;;;;;;;;;;;17.30;99.90;;;;;;8457954;28;19907;-67
2021/08/23 19:09:52;;;;;;;;;;;17.50;99.90;;;;;;8437803;28;19926;-66
2021/08/23 19:13:53;;;;;;;;;;;17.30;99.90;;;;;;8457337;28;19919;-67
2021/08/23 19:17:53;;;;;;;;;;;17.00;99.90;;;;;;8455807;28;19916;-67
2021/08/23 19:21:54;;;;;;;;;;;16.90;99.90;;;;;;8452439;28;19923;-67
2021/08/23 19:25:55;;;;;;;;;;;16.90;99.90;;;;;;8458083;28;20369;-67
2021/08/23 19:29:57;;;;;;;;;;;16.70;99.90;;;;;;8463892;28;20036;-68
2021/08/23 19:33:57;;;;;;;;;;;16.70;99.90;;;;;;8445722;28;19912;-66
2021/08/23 19:37:58;;;;;;;;;;;16.50;99.90;;;;;;8460968;28;20247;-67
2021/08/23 19:41:58;;;;;;;;;;;16.60;99.90;;;;;;8447410;28;19907;-66
2021/08/23 19:45:59;;;;;;;;;;;16.70;99.90;;;;;;8450147;28;19908;-66
2021/08/23 19:50:00;;;;;;;;;;;16.70;99.90;;;;;;8464100;28;20278;-66
2021/08/23 19:54:00;;;;;;;;;;;16.70;99.90;;;;;;8464283;28;19919;-66
2021/08/23 19:58:01;;;;;;;;;;;16.60;99.90;;;;;;8449053;28;20019;-66
2021/08/23 20:02:02;;;;;;;;;;;16.50;99.90;;;;;;8449513;28;19908;-67
2021/08/23 20:06:02;;;;;;;;;;;16.60;99.90;;;;;;8463440;28;19958;-67
2021/08/23 20:10:04;;;;;;;;;;;16.60;99.90;;;;;;8462853;28;19923;-66
2021/08/23 20:14:04;;;;;;;;;;;16.70;99.90;;;;;;8463510;28;20031;-67
2021/08/23 20:18:11;;;;;;;;;;;16.60;99.90;;;;;;8463045;28;19907;-66
2021/08/23 20:22:12;;;;;;;;;;;16.60;99.90;;;;;;8454512;28;19912;-67
2021/08/23 20:26:12;;;;;;;;;;;16.60;99.90;;;;;;8439231;28;19908;-66
2021/08/23 20:30:13;;;;;;;;;;;16.50;99.90;;;;;;8426516;28;19908;-67
2021/08/23 20:34:13;;;;;;;;;;;16.60;99.90;;;;;;8428149;28;19919;-66
2021/08/23 20:38:14;;;;;;;;;;;16.40;99.90;;;;;;8426977;28;20302;-66
2021/08/23 20:42:14;;;;;;;;;;;16.30;99.90;;;;;;8429054;28;20197;-67
2021/08/23 20:46:15;;;;;;;;;;;16.40;99.90;;;;;;8428391;28;19912;-67
2021/08/23 20:50:16;;;;;;;;;;;16.40;99.90;;;;;;8413036;28;19908;-67
2021/08/23 20:54:17;;;;;;;;;;;16.40;99.90;;;;;;8461809;28;20376;-66
2021/08/23 20:58:17;;;;;;;;;;;16.40;99.90;;;;;;8461131;28;19915;-68
2021/08/23 21:02:18;;;;;;;;;;;16.30;99.90;;;;;;8462216;28;19953;-66
2021/08/23 21:06:18;;;;;;;;;;;16.30;99.90;;;;;;8462142;28;20293;-66
2021/08/23 21:10:19;;;;;;;;;;;16.30;99.90;;;;;;8461414;28;20361;-67
2021/08/23 21:14:20;;;;;;;;;;;16.30;99.90;;;;;;8442830;28;20294;-67
2021/08/23 21:18:21;;;;;;;;;;;16.30;99.90;;;;;;8443195;28;19911;-67
2021/08/23 21:22:21;;;;;;;;;;;16.20;99.90;;;;;;8442819;28;20453;-67
2021/08/23 21:26:22;;;;;;;;;;;16.30;99.90;;;;;;8461139;28;19908;-67
2021/08/23 21:30:22;;;;;;;;;;;16.20;99.90;;;;;;8459567;28;19919;-67
2021/08/23 21:34:23;;;;;;;;;;;16.10;99.90;;;;;;8460911;28;19912;-68
2021/08/23 21:38:23;;;;;;;;;;;16.00;99.90;;;;;;8459663;28;19943;-66
2021/08/23 21:42:24;;;;;;;;;;;15.90;99.90;;;;;;8441414;28;19941;-67
2021/08/23 21:46:25;;;;;;;;;;;15.90;99.90;;;;;;8458825;28;20144;-67
2021/08/23 21:50:25;;;;;;;;;;;15.80;99.90;;;;;;8457265;28;19908;-68
2021/08/23 21:54:25;;;;;;;;;;;15.70;99.90;;;;;;8459268;28;19938;-67
2021/08/23 21:58:26;;;;;;;;;;;15.80;99.90;;;;;;8458665;28;19990;-67
2021/08/23 22:02:26;;;;;;;;;;;15.60;99.90;;;;;;8459059;28;19914;-67
2021/08/23 22:06:28;;;;;;;;;;;15.50;99.90;;;;;;8440458;28;19931;-67
2021/08/23 22:10:28;;;;;;;;;;;15.40;99.90;;;;;;8458780;28;19970;-67
2021/08/23 22:14:29;;;;;;;;;;;15.20;99.90;;;;;;8459298;28;19911;-67
2021/08/23 22:18:29;;;;;;;;;;;15.10;99.90;;;;;;8458632;28;19911;-67
2021/08/23 22:22:30;;;;;;;;;;;14.80;99.90;;;;;;8456573;28;20439;-67
2021/08/23 22:26:30;;;;;;;;;;;14.60;99.90;;;;;;8457103;28;19946;-68
2021/08/23 22:30:31;;;;;;;;;;;14.40;99.90;;;;;;8456526;28;19912;-68
2021/08/23 22:34:31;;;;;;;;;;;14.20;99.90;;;;;;8437837;28;19911;-67
2021/08/23 22:38:31;;;;;;;;;;;14.20;99.90;;;;;;8438231;28;19982;-66
2021/08/23 22:42:32;;;;;;;;;;;14.10;99.90;;;;;;8456914;28;19915;-67
2021/08/23 22:46:32;;;;;;;;;;;13.80;99.90;;;;;;8457065;28;19908;-67
2021/08/23 22:50:33;;;;;;;;;;;13.70;99.90;;;;;;8458282;28;19965;-69
2021/08/23 22:54:35;;;;;;;;;;;13.70;99.90;;;;;;8458820;28;19912;-66
2021/08/23 22:58:35;;;;;;;;;;;13.60;99.90;;;;;;8458394;28;20293;-66
2021/08/23 23:02:36;;;;;;;;;;;13.40;99.90;;;;;;8461079;28;19914;-66
2021/08/23 23:10:39;;;;;;;;;;;13.50;99.90;;;;;;8460666;28;19970;-63
2021/08/23 23:14:40;;;;;;;;;;;13.70;99.90;;;;;;8465265;28;20362;-63
2021/08/23 23:18:40;;;;;;;;;;;13.60;99.90;;;;;;8446704;28;19923;-63
2021/08/23 23:22:40;;;;;;;;;;;13.70;99.90;;;;;;8465011;28;20014;-63
2021/08/23 23:26:41;;;;;;;;;;;13.80;99.90;;;;;;8464908;28;20185;-63
2021/08/23 23:30:42;;;;;;;;;;;13.90;99.90;;;;;;8465056;28;19908;-62